createdAt,value
2023-04-08T00:01:30.763Z,8.30
2023-04-08T00:03:57.424Z,8.59
2023-04-08T00:06:24.022Z,8.59
2023-04-08T00:08:50.572Z,8.53
2023-04-08T00:11:17.139Z,8.60
2023-04-08T00:13:43.567Z,8.57
2023-04-08T00:16:10.123Z,8.62
2023-04-08T00:18:38.090Z,8.51
2023-04-08T00:21:04.892Z,8.59
2023-04-08T00:23:31.555Z,8.60
2023-04-08T00:25:58.157Z,8.44
2023-04-08T00:28:24.615Z,8.60
2023-04-08T00:30:52.579Z,8.28
2023-04-08T00:33:19.176Z,8.48
2023-04-08T00:35:46.288Z,8.31
2023-04-08T00:38:12.800Z,8.32
2023-04-08T00:40:39.366Z,8.61
2023-04-08T00:43:06.011Z,8.63
2023-04-08T00:45:33.737Z,8.64
2023-04-08T00:48:01.409Z,8.26
2023-04-08T00:50:27.935Z,8.65
2023-04-08T00:52:54.376Z,8.66
2023-04-08T00:55:20.795Z,8.67
2023-04-08T00:57:48.086Z,8.65
2023-04-08T01:00:15.732Z,8.65
2023-04-08T01:02:56.892Z,8.64
2023-04-08T01:06:00.119Z,8.69
2023-04-08T01:08:29.891Z,8.59
2023-04-08T01:11:01.036Z,8.64
2023-04-08T01:13:32.468Z,8.52
2023-04-08T01:15:59.405Z,8.19
2023-04-08T01:18:26.864Z,8.65
2023-04-08T01:20:55.210Z,8.64
2023-04-08T01:23:30.675Z,8.66
2023-04-08T01:25:57.478Z,8.65
2023-04-08T01:28:27.018Z,8.32
2023-04-08T01:30:56.500Z,8.66
2023-04-08T01:33:24.188Z,8.63
2023-04-08T01:35:52.320Z,8.66
2023-04-08T01:38:20.989Z,8.67
2023-04-08T01:40:48.663Z,8.67
2023-04-08T01:43:17.118Z,8.66
2023-04-08T01:45:45.873Z,8.66
2023-04-08T01:48:15.904Z,8.66
2023-04-08T01:50:43.839Z,8.66
2023-04-08T01:53:11.087Z,8.64
2023-04-08T01:55:40.366Z,8.60
2023-04-08T01:58:11.318Z,8.61
2023-04-08T02:00:41.032Z,8.37
2023-04-08T02:03:11.490Z,8.59
2023-04-08T02:05:39.113Z,8.50
2023-04-08T02:08:05.815Z,8.55
2023-04-08T02:10:32.377Z,8.30
2023-04-08T02:12:58.986Z,8.22
2023-04-08T02:15:28.993Z,8.47
2023-04-08T02:18:00.783Z,8.43
2023-04-08T02:20:38.799Z,8.42
2023-04-08T02:23:19.422Z,8.32
2023-04-08T02:25:47.522Z,8.35
2023-04-08T02:28:15.735Z,8.39
2023-04-08T02:30:45.703Z,8.01
2023-04-08T02:33:14.623Z,8.40
2023-04-08T02:35:42.132Z,8.20
2023-04-08T02:38:10.734Z,8.39
2023-04-08T02:40:37.654Z,8.35
2023-04-08T02:43:04.273Z,8.31
2023-04-08T02:45:33.055Z,8.30
2023-04-08T02:48:00.661Z,8.31
2023-04-08T02:50:27.436Z,8.01
2023-04-08T02:52:53.888Z,8.18
2023-04-08T02:55:20.456Z,8.27
2023-04-08T02:57:48.326Z,8.30
2023-04-08T03:00:15.821Z,8.18
2023-04-08T03:02:42.529Z,8.29
2023-04-08T03:05:09.727Z,8.26
2023-04-08T03:07:36.806Z,8.27
2023-04-08T03:10:03.837Z,8.29
2023-04-08T03:12:31.503Z,8.30
2023-04-08T03:14:58.002Z,7.73
2023-04-08T03:17:24.612Z,8.21
2023-04-08T03:19:51.245Z,8.29
2023-04-08T03:22:17.785Z,8.28
2023-04-08T03:24:44.251Z,8.19
2023-04-08T03:27:12.438Z,8.22
2023-04-08T03:29:38.904Z,8.01
2023-04-08T03:32:05.644Z,8.20
2023-04-08T03:34:34.265Z,8.30
2023-04-08T03:37:01.026Z,8.23
2023-04-08T03:39:27.429Z,8.05
2023-04-08T03:41:53.936Z,8.29
2023-04-08T03:44:20.449Z,8.16
2023-04-08T03:46:46.844Z,8.17
2023-04-08T03:49:13.265Z,8.26
2023-04-08T03:51:39.727Z,8.07
2023-04-08T03:54:08.180Z,8.17
2023-04-08T03:56:34.689Z,8.00
2023-04-08T03:59:01.223Z,8.17
2023-04-08T04:01:27.752Z,8.10
2023-04-08T04:03:54.344Z,7.99
2023-04-08T04:06:21.142Z,8.14
2023-04-08T04:08:47.889Z,8.15
2023-04-08T04:11:14.583Z,8.12
2023-04-08T04:13:41.010Z,8.13
2023-04-08T04:16:07.750Z,7.81
2023-04-08T04:18:34.474Z,8.11
2023-04-08T04:21:01.090Z,7.68
2023-04-08T04:23:27.550Z,7.79
2023-04-08T04:25:54.106Z,7.83
2023-04-08T04:28:20.630Z,8.11
2023-04-08T04:30:47.063Z,8.07
2023-04-08T04:33:13.521Z,7.94
2023-04-08T04:35:42.159Z,8.00
2023-04-08T04:38:12.345Z,7.72
2023-04-08T04:40:39.516Z,8.02
2023-04-08T04:43:05.997Z,7.86
2023-04-08T04:45:32.520Z,7.62
2023-04-08T04:47:58.992Z,7.87
2023-04-08T04:50:25.658Z,7.82
2023-04-08T04:52:52.133Z,7.93
2023-04-08T04:55:18.758Z,7.71
2023-04-08T04:57:45.417Z,7.89
2023-04-08T05:00:12.205Z,7.65
2023-04-08T05:02:38.886Z,7.90
2023-04-08T05:05:05.957Z,7.80
2023-04-08T05:07:36.497Z,7.87
2023-04-08T05:10:04.431Z,7.92
2023-04-08T05:12:31.056Z,7.88
2023-04-08T05:15:00.848Z,7.91
2023-04-08T05:17:27.336Z,7.89
2023-04-08T05:19:53.845Z,7.87
2023-04-08T05:22:20.397Z,7.89
2023-04-08T05:24:47.050Z,7.86
2023-04-08T05:27:13.493Z,7.78
2023-04-08T05:29:40.001Z,7.95
2023-04-08T05:32:06.629Z,7.93
2023-04-08T05:34:33.125Z,7.92
2023-04-08T05:36:59.575Z,7.93
2023-04-08T05:39:26.423Z,7.76
2023-04-08T05:41:52.957Z,7.94
2023-04-08T05:44:19.392Z,7.95
2023-04-08T05:46:45.951Z,7.75
2023-04-08T05:49:12.610Z,8.00
2023-04-08T05:51:39.616Z,8.00
2023-04-08T05:54:05.984Z,8.02
2023-04-08T05:56:32.357Z,7.68
2023-04-08T05:58:59.060Z,8.03
2023-04-08T06:01:26.340Z,8.01
2023-04-08T06:03:53.187Z,7.83
2023-04-08T06:06:19.762Z,7.82
2023-04-08T06:08:47.149Z,8.02
2023-04-08T06:11:13.805Z,8.04
2023-04-08T06:13:40.364Z,8.05
2023-04-08T06:16:14.331Z,8.07
2023-04-08T06:18:40.974Z,8.08
2023-04-08T06:21:10.809Z,8.07
2023-04-08T06:23:37.725Z,8.11
2023-04-08T06:26:04.922Z,8.08
2023-04-08T06:28:32.142Z,8.11
2023-04-08T06:30:59.169Z,8.13
2023-04-08T06:33:25.901Z,8.15
2023-04-08T06:35:52.442Z,8.20
2023-04-08T06:38:19.203Z,8.18
2023-04-08T06:40:45.783Z,8.13
2023-04-08T06:43:12.160Z,8.26
2023-04-08T06:45:38.585Z,8.21
2023-04-08T06:48:06.697Z,8.34
2023-04-08T06:50:33.331Z,8.38
2023-04-08T06:53:00.355Z,8.32
2023-04-08T06:55:27.058Z,8.42
2023-04-08T06:57:53.621Z,8.39
2023-04-08T07:00:20.560Z,8.42
2023-04-08T07:02:47.138Z,8.41
2023-04-08T07:05:13.757Z,8.39
2023-04-08T07:07:40.268Z,8.44
2023-04-08T07:10:08.848Z,8.46
2023-04-08T07:12:37.406Z,8.48
2023-04-08T07:15:04.123Z,8.49
2023-04-08T07:17:30.968Z,8.46
2023-04-08T07:19:57.720Z,8.56
2023-04-08T07:22:24.124Z,8.49
2023-04-08T07:24:54.323Z,8.50
2023-04-08T07:27:21.752Z,8.69
2023-04-08T07:29:53.632Z,8.69
2023-04-08T07:32:20.792Z,8.80
2023-04-08T07:34:47.410Z,8.82
2023-04-08T07:37:13.956Z,8.80
2023-04-08T07:39:40.423Z,8.84
2023-04-08T07:42:06.830Z,8.54
2023-04-08T07:44:33.214Z,8.89
2023-04-08T07:46:59.605Z,8.96
2023-04-08T07:49:26.164Z,9.01
2023-04-08T07:51:53.107Z,8.98
2023-04-08T07:54:19.637Z,8.90
2023-04-08T07:56:46.296Z,8.87
2023-04-08T07:59:12.882Z,8.83
2023-04-08T08:01:39.395Z,8.94
2023-04-08T08:04:06.069Z,8.97
2023-04-08T08:06:32.641Z,9.02
2023-04-08T08:08:59.865Z,9.01
2023-04-08T08:11:29.419Z,9.11
2023-04-08T08:13:55.845Z,9.12
2023-04-08T08:16:22.840Z,9.16
2023-04-08T08:18:49.384Z,9.18
2023-04-08T08:21:15.963Z,8.88
2023-04-08T08:23:42.631Z,9.23
2023-04-08T08:26:10.515Z,9.26
2023-04-08T08:28:37.778Z,9.29
2023-04-08T08:31:05.884Z,9.33
2023-04-08T08:33:33.284Z,9.35
2023-04-08T08:36:00.079Z,9.40
2023-04-08T08:38:27.112Z,9.45
2023-04-08T08:40:57.593Z,9.47
2023-04-08T08:43:24.465Z,9.61
2023-04-08T08:45:51.311Z,9.49
2023-04-08T08:48:17.902Z,9.38
2023-04-08T08:50:44.445Z,9.46
2023-04-08T08:53:11.050Z,9.45
2023-04-08T08:56:05.721Z,9.47
2023-04-08T08:58:28.444Z,9.33
2023-04-08T09:00:55.104Z,9.52
2023-04-08T09:03:23.013Z,9.46
2023-04-08T09:05:53.998Z,9.62
2023-04-08T09:08:35.356Z,9.73
2023-04-08T09:11:22.112Z,9.76
2023-04-08T09:13:48.788Z,9.59
2023-04-08T09:16:18.294Z,9.85
2023-04-08T09:18:47.051Z,9.94
2023-04-08T09:21:14.722Z,10.02
2023-04-08T09:23:45.807Z,10.18
2023-04-08T09:26:17.080Z,10.40
2023-04-08T09:28:57.582Z,10.58
2023-04-08T09:31:27.823Z,10.37
2023-04-08T09:33:55.355Z,10.97
2023-04-08T09:36:22.056Z,10.97
2023-04-08T09:38:49.044Z,10.98
2023-04-08T09:41:17.311Z,11.17
2023-04-08T09:43:52.209Z,11.07
2023-04-08T09:46:45.548Z,11.43
2023-04-08T09:49:44.718Z,11.55
2023-04-08T09:52:15.660Z,11.60
2023-04-08T09:54:45.492Z,11.68
2023-04-08T09:57:21.934Z,11.69
2023-04-08T10:00:04.240Z,11.69
2023-04-08T10:02:39.282Z,11.62
2023-04-08T10:05:08.403Z,11.57
2023-04-08T10:07:36.294Z,11.49
2023-04-08T10:10:03.942Z,11.47
2023-04-08T10:12:30.709Z,11.39
2023-04-08T10:15:24.037Z,11.44
2023-04-08T10:17:51.681Z,11.40
2023-04-08T10:20:36.470Z,11.46
2023-04-08T10:23:04.041Z,11.41
2023-04-08T10:25:36.043Z,11.37
2023-04-08T10:28:11.698Z,11.37
2023-04-08T10:30:38.075Z,11.34
2023-04-08T10:33:12.238Z,11.34
2023-04-08T10:35:42.710Z,11.19
2023-04-08T10:38:09.288Z,11.15
2023-04-08T10:40:38.986Z,11.11
2023-04-08T10:43:06.067Z,11.06
2023-04-08T10:45:32.967Z,11.14
2023-04-08T10:48:31.900Z,11.17
2023-04-08T10:51:00.894Z,11.08
2023-04-08T10:53:28.287Z,10.91
2023-04-08T10:56:03.232Z,10.96
2023-04-08T10:58:30.315Z,10.87
2023-04-08T11:01:08.475Z,10.84
2023-04-08T11:03:37.087Z,10.84
2023-04-08T11:06:04.344Z,10.85
2023-04-08T11:08:34.989Z,10.79
2023-04-08T11:11:05.534Z,10.78
2023-04-08T11:13:33.300Z,10.86
2023-04-08T11:16:00.596Z,10.87
2023-04-08T11:18:27.361Z,10.87
2023-04-08T11:20:54.285Z,10.83
2023-04-08T11:23:22.822Z,10.67
2023-04-08T11:25:50.781Z,10.83
2023-04-08T11:28:18.271Z,10.66
2023-04-08T11:30:44.773Z,10.91
2023-04-08T11:33:13.165Z,10.92
2023-04-08T11:35:43.959Z,10.98
2023-04-08T11:38:11.638Z,11.02
2023-04-08T11:40:38.564Z,10.98
2023-04-08T11:43:15.407Z,11.02
2023-04-08T11:45:42.729Z,11.18
2023-04-08T11:48:14.042Z,11.26
2023-04-08T11:50:41.859Z,11.28
2023-04-08T11:53:21.931Z,11.27
2023-04-08T11:55:49.149Z,11.18
2023-04-08T11:58:15.857Z,11.11
2023-04-08T12:00:43.617Z,10.66
2023-04-08T12:03:10.909Z,11.01
2023-04-08T12:05:37.771Z,10.98
2023-04-08T12:08:04.319Z,10.60
2023-04-08T12:10:31.165Z,10.87
2023-04-08T12:12:57.600Z,10.62
2023-04-08T12:15:24.043Z,10.64
2023-04-08T12:17:50.512Z,10.80
2023-04-08T12:20:17.294Z,10.81
2023-04-08T12:22:43.802Z,10.95
2023-04-08T12:25:10.335Z,10.97
2023-04-08T12:27:36.802Z,11.00
2023-04-08T12:30:04.158Z,10.91
2023-04-08T12:32:30.794Z,11.06
2023-04-08T12:34:57.323Z,11.17
2023-04-08T12:37:24.183Z,11.19
2023-04-08T12:39:50.607Z,11.24
2023-04-08T12:42:17.152Z,11.27
2023-04-08T12:44:43.687Z,11.24
2023-04-08T12:47:10.337Z,11.39
2023-04-08T12:49:48.626Z,11.41
2023-04-08T12:52:16.055Z,11.44
2023-04-08T12:54:42.919Z,11.45
2023-04-08T12:57:09.357Z,11.48
2023-04-08T12:59:35.978Z,11.22
2023-04-08T13:02:02.515Z,11.45
2023-04-08T13:04:29.059Z,11.22
2023-04-08T13:06:56.376Z,11.37
2023-04-08T13:09:22.932Z,11.26
2023-04-08T13:11:49.524Z,11.40
2023-04-08T13:14:16.394Z,11.56
2023-04-08T13:16:42.855Z,11.55
2023-04-08T13:19:09.335Z,11.57
2023-04-08T13:21:35.743Z,11.47
2023-04-08T13:24:02.370Z,11.24
2023-04-08T13:26:28.912Z,11.48
2023-04-08T13:28:57.697Z,11.46
2023-04-08T13:31:24.982Z,11.49
2023-04-08T13:33:51.648Z,11.53
2023-04-08T13:36:18.100Z,11.53
2023-04-08T13:38:46.195Z,11.54
2023-04-08T13:41:12.756Z,11.56
2023-04-08T13:43:39.162Z,11.54
2023-04-08T13:46:05.754Z,11.57
2023-04-08T13:48:32.256Z,11.56
2023-04-08T13:50:58.649Z,11.31
2023-04-08T13:53:25.135Z,11.47
2023-04-08T13:55:55.064Z,11.37
2023-04-08T13:58:24.150Z,11.33
2023-04-08T14:00:54.234Z,11.09
2023-04-08T14:03:20.833Z,11.11
2023-04-08T14:05:47.655Z,10.99
2023-04-08T14:08:14.199Z,10.89
2023-04-08T14:10:42.135Z,10.80
2023-04-08T14:13:09.250Z,10.74
2023-04-08T14:15:36.160Z,10.54
2023-04-08T14:18:02.914Z,10.68
2023-04-08T14:20:29.851Z,10.77
2023-04-08T14:22:56.681Z,10.78
2023-04-08T14:25:23.712Z,10.70
2023-04-08T14:27:57.985Z,10.54
2023-04-08T14:30:25.334Z,10.71
2023-04-08T14:32:52.050Z,10.78
2023-04-08T14:35:18.556Z,10.97
2023-04-08T14:37:45.173Z,10.67
2023-04-08T14:40:12.144Z,10.89
2023-04-08T14:42:38.563Z,10.90
2023-04-08T14:45:05.412Z,10.53
2023-04-08T14:47:31.918Z,10.96
2023-04-08T14:49:58.363Z,10.92
2023-04-08T14:52:24.940Z,10.81
2023-04-08T14:54:52.701Z,10.99
2023-04-08T14:57:20.068Z,10.93
2023-04-08T14:59:46.572Z,10.89
2023-04-08T15:02:13.261Z,10.91
2023-04-08T15:04:39.870Z,10.74
2023-04-08T15:07:06.712Z,10.82
2023-04-08T15:09:33.380Z,10.92
2023-04-08T15:12:00.017Z,10.75
2023-04-08T15:14:26.697Z,10.85
2023-04-08T15:16:53.356Z,10.73
2023-04-08T15:19:20.216Z,10.71
2023-04-08T15:21:47.344Z,10.57
2023-04-08T15:24:14.082Z,10.72
2023-04-08T15:26:41.089Z,10.63
2023-04-08T15:29:07.906Z,10.67
2023-04-08T15:31:35.288Z,10.65
2023-04-08T15:34:03.492Z,10.53
2023-04-08T15:36:30.756Z,10.38
2023-04-08T15:38:57.226Z,10.57
2023-04-08T15:41:24.043Z,10.51
2023-04-08T15:43:53.089Z,10.54
2023-04-08T15:46:25.785Z,10.49
2023-04-08T15:48:52.577Z,10.44
2023-04-08T15:51:20.262Z,10.41
2023-04-08T15:53:47.140Z,10.38
2023-04-08T15:56:18.029Z,10.32
2023-04-08T15:58:46.342Z,10.36
2023-04-08T16:01:13.302Z,10.36
2023-04-08T16:03:39.818Z,9.99
2023-04-08T16:06:06.632Z,10.33
2023-04-08T16:08:34.660Z,10.39
2023-04-08T16:11:02.720Z,10.42
2023-04-08T16:13:30.178Z,10.23
2023-04-08T16:15:58.171Z,10.45
2023-04-08T16:18:25.204Z,10.40
2023-04-08T16:20:51.751Z,10.34
2023-04-08T16:23:18.301Z,10.48
2023-04-08T16:25:45.360Z,10.39
2023-04-08T16:28:12.405Z,10.46
2023-04-08T16:30:38.974Z,10.45
2023-04-08T16:33:06.162Z,10.51
2023-04-08T16:35:32.814Z,10.47
2023-04-08T16:37:59.505Z,10.53
2023-04-08T16:40:26.227Z,10.53
2023-04-08T16:42:53.370Z,10.56
2023-04-08T16:45:19.857Z,10.55
2023-04-08T16:47:46.581Z,10.57
2023-04-08T16:50:13.133Z,10.54
2023-04-08T16:52:39.869Z,10.49
2023-04-08T16:55:06.810Z,10.50
2023-04-08T16:57:33.369Z,10.48
2023-04-08T16:59:59.783Z,10.42
2023-04-08T17:02:26.484Z,10.36
2023-04-08T17:04:53.055Z,10.09
2023-04-08T17:07:19.519Z,10.19
2023-04-08T17:09:49.666Z,10.26
2023-04-08T17:12:16.301Z,10.17
2023-04-08T17:14:42.858Z,10.30
2023-04-08T17:17:09.396Z,10.30
2023-04-08T17:19:36.693Z,10.25
2023-04-08T17:22:03.280Z,10.28
2023-04-08T17:24:29.878Z,10.25
2023-04-08T17:26:59.989Z,10.07
2023-04-08T17:29:26.449Z,10.21
2023-04-08T17:31:53.220Z,9.96
2023-04-08T17:34:19.673Z,10.21
2023-04-08T17:36:46.260Z,10.19
2023-04-08T17:39:12.749Z,10.23
2023-04-08T17:41:40.703Z,10.27
2023-04-08T17:44:07.813Z,10.27
2023-04-08T17:46:34.260Z,10.27
2023-04-08T17:49:00.729Z,10.25
2023-04-08T17:51:28.714Z,9.95
2023-04-08T17:53:55.227Z,10.21
2023-04-08T17:56:23.159Z,10.23
2023-04-08T17:58:49.572Z,10.23
2023-04-08T18:01:16.110Z,10.22
2023-04-08T18:03:42.615Z,9.95
2023-04-08T18:06:09.220Z,10.17
2023-04-08T18:08:35.768Z,10.17
2023-04-08T18:11:05.826Z,10.23
2023-04-08T18:13:32.704Z,10.23
2023-04-08T18:15:59.628Z,10.22
2023-04-08T18:18:26.028Z,10.23
2023-04-08T18:20:52.582Z,9.91
2023-04-08T18:23:19.002Z,10.09
2023-04-08T18:25:50.114Z,10.06
2023-04-08T18:28:16.535Z,10.16
2023-04-08T18:30:43.330Z,10.22
2023-04-08T18:33:09.772Z,10.20
2023-04-08T18:35:36.871Z,10.20
2023-04-08T18:38:03.401Z,9.72
2023-04-08T18:40:31.159Z,10.20
2023-04-08T18:43:01.881Z,10.20
2023-04-08T18:45:29.277Z,10.20
2023-04-08T18:47:55.918Z,10.15
2023-04-08T18:50:22.788Z,10.19
2023-04-08T18:52:49.787Z,9.99
2023-04-08T18:55:16.615Z,10.19
2023-04-08T18:57:43.123Z,10.19
2023-04-08T19:00:09.848Z,10.17
2023-04-08T19:02:36.338Z,10.18
2023-04-08T19:05:02.862Z,10.09
2023-04-08T19:07:29.300Z,10.14
2023-04-08T19:09:57.629Z,10.09
2023-04-08T19:12:24.586Z,10.18
2023-04-08T19:14:51.139Z,10.17
2023-04-08T19:17:17.617Z,10.16
2023-04-08T19:19:44.098Z,10.12
2023-04-08T19:22:10.659Z,10.10
2023-04-08T19:24:37.691Z,10.08
2023-04-08T19:27:04.412Z,10.15
2023-04-08T19:29:33.576Z,10.00
2023-04-08T19:32:01.578Z,10.10
2023-04-08T19:34:28.154Z,10.13
2023-04-08T19:36:54.669Z,9.88
2023-04-08T19:39:21.226Z,9.90
2023-04-08T19:41:48.113Z,10.14
2023-04-08T19:44:14.644Z,10.13
2023-04-08T19:46:41.210Z,10.12
2023-04-08T19:49:07.862Z,9.88
2023-04-08T19:51:34.298Z,10.11
2023-04-08T19:54:00.732Z,10.10
2023-04-08T19:56:27.820Z,10.07
2023-04-08T19:58:54.485Z,9.96
2023-04-08T20:01:21.195Z,10.10
2023-04-08T20:03:52.193Z,10.11
2023-04-08T20:06:19.580Z,9.85
2023-04-08T20:08:46.365Z,9.98
2023-04-08T20:11:13.777Z,10.02
2023-04-08T20:13:40.425Z,10.11
2023-04-08T20:16:07.625Z,10.05
2023-04-08T20:18:34.337Z,10.08
2023-04-08T20:21:01.058Z,10.11
2023-04-08T20:23:28.452Z,9.94
2023-04-08T20:25:55.102Z,10.03
2023-04-08T20:28:21.616Z,10.02
2023-04-08T20:30:48.162Z,10.00
2023-04-08T20:33:14.619Z,10.11
2023-04-08T20:35:41.385Z,10.11
2023-04-08T20:38:07.956Z,9.95
2023-04-08T20:40:34.346Z,10.10
2023-04-08T20:43:01.035Z,10.10
2023-04-08T20:45:28.215Z,10.11
2023-04-08T20:47:55.586Z,10.03
2023-04-08T20:50:22.106Z,10.12
2023-04-08T20:52:48.576Z,9.97
2023-04-08T20:55:15.490Z,10.11
2023-04-08T20:57:42.098Z,10.12
2023-04-08T21:00:09.600Z,10.11
2023-04-08T21:02:36.362Z,9.91
2023-04-08T21:05:03.243Z,10.02
2023-04-08T21:07:30.374Z,10.15
2023-04-08T21:09:56.861Z,10.04
2023-04-08T21:12:23.293Z,10.13
2023-04-08T21:14:50.807Z,10.12
2023-04-08T21:17:17.475Z,10.10
2023-04-08T21:19:43.920Z,10.12
2023-04-08T21:22:10.465Z,10.12
2023-04-08T21:24:38.009Z,10.12
2023-04-08T21:27:04.509Z,10.06
2023-04-08T21:29:31.045Z,10.06
2023-04-08T21:31:57.539Z,10.11
2023-04-08T21:34:24.023Z,10.09
2023-04-08T21:36:50.827Z,10.10
2023-04-08T21:39:17.529Z,10.07
2023-04-08T21:41:43.956Z,10.07
2023-04-08T21:44:10.495Z,9.93
2023-04-08T21:46:36.967Z,10.04
2023-04-08T21:49:03.372Z,10.01
2023-04-08T21:51:29.937Z,9.82
2023-04-08T21:53:56.386Z,10.05
2023-04-08T21:56:24.484Z,10.05
2023-04-08T21:58:51.265Z,10.00
2023-04-08T22:01:18.044Z,10.06
2023-04-08T22:03:44.882Z,10.07
2023-04-08T22:06:19.173Z,10.07
2023-04-08T22:08:52.395Z,10.09
2023-04-08T22:11:19.111Z,9.92
2023-04-08T22:13:45.596Z,10.06
2023-04-08T22:16:12.172Z,10.05
2023-04-08T22:18:38.618Z,9.94
2023-04-08T22:21:05.186Z,10.10
2023-04-08T22:23:31.761Z,10.05
2023-04-08T22:25:58.311Z,9.90
2023-04-08T22:28:24.774Z,9.97
2023-04-08T22:30:51.412Z,10.02
2023-04-08T22:33:17.964Z,9.91
2023-04-08T22:35:44.521Z,10.10
2023-04-08T22:38:11.573Z,9.99
2023-04-08T22:40:38.246Z,10.10
2023-04-08T22:43:04.680Z,9.80
2023-04-08T22:45:31.329Z,10.06
2023-04-08T22:47:57.850Z,10.09
2023-04-08T22:50:24.507Z,9.83
2023-04-08T22:52:51.075Z,9.97
2023-04-08T22:55:17.518Z,9.96
2023-04-08T22:57:43.966Z,10.04
2023-04-08T23:00:11.328Z,10.03
2023-04-08T23:02:38.967Z,10.05
2023-04-08T23:05:06.094Z,10.04
2023-04-08T23:07:32.601Z,10.07
2023-04-08T23:09:59.221Z,10.06
2023-04-08T23:12:25.744Z,10.07
2023-04-08T23:14:52.192Z,10.00
2023-04-08T23:17:18.660Z,10.03
2023-04-08T23:19:45.091Z,10.03
2023-04-08T23:22:11.518Z,10.01
2023-04-08T23:24:37.966Z,10.00
2023-04-08T23:27:04.400Z,9.65
2023-04-08T23:29:31.479Z,9.98
2023-04-08T23:31:57.984Z,9.74
2023-04-08T23:34:24.462Z,9.97
2023-04-08T23:36:50.920Z,9.83
2023-04-08T23:39:17.442Z,9.98
2023-04-08T23:41:43.866Z,9.97
2023-04-08T23:44:10.418Z,9.86
2023-04-08T23:46:37.017Z,9.97
2023-04-08T23:49:03.570Z,9.96
2023-04-08T23:51:30.059Z,9.76
2023-04-08T23:53:56.436Z,9.77
2023-04-08T23:56:22.958Z,9.85
2023-04-08T23:58:49.544Z,9.91
